Time;durP1;ratioP1;P1;durP2;ratioP2;P2;SDS_P1;SDS_P2;PMS_P1;PMS_P2;Temp;Humidity;BMP_temperature;BMP_pressure;BME280_temperature;BME280_humidity;BME280_pressure;Samples;Min_cycle;Max_cycle;Signal;HPM_P1;HPM_P2
2023/12/08 00:00:18;;;;;;;28.17;13.68;;;;;;;;;;4969579;28;20030;-69
2023/12/08 00:02:43;;;;;;;33.60;13.00;;;;;;;;;;4970105;28;20242;-68
2023/12/08 00:05:09;;;;;;;27.52;13.10;;;;;;;;;;4968908;28;20105;-69
2023/12/08 00:07:34;;;;;;;28.80;13.18;;;;;;;;;;4969150;28;20023;-68
2023/12/08 00:10:00;;;;;;;24.52;12.73;;;;;;;;;;4969681;28;20019;-68
2023/12/08 00:12:25;;;;;;;30.48;13.32;;;;;;;;;;4968772;28;20039;-69
2023/12/08 00:14:50;;;;;;;31.23;12.18;;;;;;;;;;4969042;28;20030;-68
2023/12/08 00:17:16;;;;;;;27.42;12.57;;;;;;;;;;4973847;28;20027;-68
2023/12/08 00:19:41;;;;;;;32.65;14.07;;;;;;;;;;4963002;28;20019;-68
2023/12/08 00:22:06;;;;;;;32.33;13.30;;;;;;;;;;4974221;28;20026;-69
2023/12/08 00:24:32;;;;;;;27.70;12.70;;;;;;;;;;4972942;28;20491;-67
2023/12/08 00:26:57;;;;;;;30.85;12.60;;;;;;;;;;4973940;28;20019;-68
2023/12/08 00:29:22;;;;;;;25.02;13.63;;;;;;;;;;4992650;23;20058;-66
2023/12/08 00:31:48;;;;;;;27.17;13.07;;;;;;;;;;4973859;28;20050;-64
2023/12/08 00:34:13;;;;;;;24.77;11.38;;;;;;;;;;4973457;28;20011;-64
2023/12/08 00:36:40;;;;;;;21.38;11.90;;;;;;;;;;4972729;28;20030;-64
2023/12/08 00:39:05;;;;;;;27.58;12.55;;;;;;;;;;4976333;28;20029;-64
2023/12/08 00:41:30;;;;;;;31.08;11.40;;;;;;;;;;4973904;28;20015;-65
2023/12/08 00:43:56;;;;;;;24.92;10.88;;;;;;;;;;4975092;28;20489;-64
2023/12/08 00:46:21;;;;;;;24.73;12.35;;;;;;;;;;4972236;28;20046;-66
2023/12/08 00:48:46;;;;;;;26.52;12.13;;;;;;;;;;4979248;28;20026;-65
2023/12/08 00:51:12;;;;;;;25.35;10.18;;;;;;;;;;4971000;28;20082;-65
2023/12/08 00:53:37;;;;;;;23.70;10.82;;;;;;;;;;4970222;28;20051;-65
2023/12/08 00:56:03;;;;;;;24.85;11.60;;;;;;;;;;4973055;28;20096;-64
2023/12/08 00:58:28;;;;;;;22.23;11.70;;;;;;;;;;4973612;28;20014;-63
2023/12/08 01:00:53;;;;;;;23.63;11.13;;;;;;;;;;4971980;28;20475;-64
2023/12/08 01:03:18;;;;;;;19.42;9.95;;;;;;;;;;4972433;28;20029;-62
2023/12/08 01:05:44;;;;;;;27.38;11.48;;;;;;;;;;4972173;28;20030;-65
2023/12/08 01:08:09;;;;;;;35.88;13.35;;;;;;;;;;4972902;28;20027;-64
2023/12/08 01:10:34;;;;;;;29.08;14.13;;;;;;;;;;4973297;28;20078;-62
2023/12/08 01:12:59;;;;;;;29.10;13.30;;;;;;;;;;4973383;28;20019;-63
2023/12/08 01:15:25;;;;;;;28.48;11.73;;;;;;;;;;4975408;28;20402;-64
2023/12/08 01:17:53;;;;;;;24.83;12.27;;;;;;;;;;4973557;28;20050;-64
2023/12/08 01:20:18;;;;;;;22.65;11.27;;;;;;;;;;4967169;28;20023;-64
2023/12/08 01:22:43;;;;;;;22.63;11.30;;;;;;;;;;4972766;28;20074;-64
2023/12/08 01:25:08;;;;;;;24.90;11.82;;;;;;;;;;4972651;28;20453;-64
2023/12/08 01:27:34;;;;;;;26.45;11.55;;;;;;;;;;4972416;28;20498;-65
2023/12/08 01:29:59;;;;;;;27.67;12.63;;;;;;;;;;4971633;28;20058;-63
2023/12/08 01:32:24;;;;;;;26.20;12.40;;;;;;;;;;4971795;28;20049;-64
2023/12/08 01:34:49;;;;;;;21.08;9.85;;;;;;;;;;4971589;28;20127;-62
2023/12/08 01:37:14;;;;;;;26.52;11.52;;;;;;;;;;4973253;28;20027;-64
2023/12/08 01:39:40;;;;;;;26.40;13.23;;;;;;;;;;4971832;28;20038;-64
2023/12/08 01:42:05;;;;;;;29.00;12.65;;;;;;;;;;4972654;28;20042;-66
2023/12/08 01:44:30;;;;;;;22.35;10.73;;;;;;;;;;4973895;28;20015;-65
2023/12/08 01:46:55;;;;;;;32.60;12.40;;;;;;;;;;4971147;28;20026;-65
2023/12/08 01:49:21;;;;;;;27.60;12.45;;;;;;;;;;4977003;28;20166;-64
2023/12/08 01:51:46;;;;;;;31.98;12.65;;;;;;;;;;4969614;28;20050;-62
2023/12/08 01:54:12;;;;;;;26.65;11.98;;;;;;;;;;4972237;28;20467;-63
2023/12/08 01:56:37;;;;;;;26.48;12.02;;;;;;;;;;4970665;28;20027;-62
2023/12/08 01:59:03;;;;;;;26.10;11.98;;;;;;;;;;4972594;28;20017;-64
2023/12/08 02:01:28;;;;;;;25.50;12.85;;;;;;;;;;4972070;28;20019;-65
2023/12/08 02:03:54;;;;;;;25.17;12.48;;;;;;;;;;4971830;28;20034;-64
2023/12/08 02:06:19;;;;;;;28.40;12.00;;;;;;;;;;4971043;28;20033;-58
2023/12/08 02:08:46;;;;;;;24.77;10.68;;;;;;;;;;4971239;28;20034;-63
2023/12/08 02:11:12;;;;;;;27.88;11.85;;;;;;;;;;4972545;28;20054;-63
2023/12/08 02:13:37;;;;;;;26.00;11.45;;;;;;;;;;4972165;28;20022;-63
2023/12/08 02:16:16;;;;;;;25.45;11.25;;;;;;;;;;4971903;28;20019;-65
2023/12/08 02:18:41;;;;;;;26.48;11.93;;;;;;;;;;4971554;28;20074;-64
2023/12/08 02:21:08;;;;;;;21.67;10.73;;;;;;;;;;4971726;28;20027;-64
2023/12/08 02:23:34;;;;;;;26.77;11.88;;;;;;;;;;4968043;28;20110;-64
2023/12/08 02:25:59;;;;;;;24.15;11.75;;;;;;;;;;4971115;28;20581;-64
2023/12/08 02:28:24;;;;;;;27.80;12.40;;;;;;;;;;4971770;28;20026;-64
2023/12/08 02:30:51;;;;;;;26.60;11.27;;;;;;;;;;4971164;28;20023;-64
2023/12/08 02:33:23;;;;;;;28.25;11.43;;;;;;;;;;4971196;28;20031;-64
2023/12/08 02:35:48;;;;;;;28.23;11.95;;;;;;;;;;4970409;28;20061;-64
2023/12/08 02:38:17;;;;;;;25.20;12.07;;;;;;;;;;4972773;28;20034;-64
2023/12/08 02:40:42;;;;;;;23.20;10.32;;;;;;;;;;4971456;28;20026;-63
2023/12/08 02:43:07;;;;;;;25.05;10.70;;;;;;;;;;4972354;28;20630;-63
2023/12/08 02:45:32;;;;;;;25.58;11.73;;;;;;;;;;4970749;28;20015;-64
2023/12/08 02:47:58;;;;;;;22.23;10.10;;;;;;;;;;4971804;28;20034;-64
2023/12/08 02:50:23;;;;;;;21.25;11.40;;;;;;;;;;4976151;28;20021;-63
2023/12/08 02:52:48;;;;;;;23.90;11.40;;;;;;;;;;4970687;28;20031;-64
2023/12/08 02:55:13;;;;;;;22.55;10.70;;;;;;;;;;4971176;28;20023;-64
2023/12/08 02:57:38;;;;;;;26.58;11.38;;;;;;;;;;4970512;28;20229;-62
2023/12/08 03:00:04;;;;;;;21.20;10.52;;;;;;;;;;4970934;28;20026;-65
2023/12/08 03:02:29;;;;;;;27.38;11.02;;;;;;;;;;4971175;28;20021;-65
2023/12/08 03:04:55;;;;;;;24.85;11.18;;;;;;;;;;4970572;28;20549;-63
2023/12/08 03:07:20;;;;;;;23.02;10.30;;;;;;;;;;4969887;28;20027;-64
2023/12/08 03:09:45;;;;;;;23.48;10.63;;;;;;;;;;4970887;28;20027;-62
2023/12/08 03:12:10;;;;;;;26.23;11.98;;;;;;;;;;4971409;28;20042;-64
2023/12/08 03:14:35;;;;;;;27.92;12.20;;;;;;;;;;4970406;28;20022;-62
2023/12/08 03:17:00;;;;;;;20.55;11.13;;;;;;;;;;4974211;28;20038;-64
2023/12/08 03:19:26;;;;;;;25.35;11.57;;;;;;;;;;4970795;28;20447;-64
2023/12/08 03:21:51;;;;;;;24.25;11.38;;;;;;;;;;4970175;28;20475;-64
2023/12/08 03:24:16;;;;;;;21.55;10.77;;;;;;;;;;4970547;28;20505;-64
2023/12/08 03:26:41;;;;;;;23.75;9.90;;;;;;;;;;4969657;28;20089;-64
2023/12/08 03:29:07;;;;;;;25.75;11.40;;;;;;;;;;4970805;28;20080;-64
2023/12/08 03:31:32;;;;;;;19.65;9.00;;;;;;;;;;4970042;28;20065;-66
2023/12/08 03:33:57;;;;;;;25.58;10.23;;;;;;;;;;4970366;28;20442;-64
2023/12/08 03:36:23;;;;;;;23.13;10.18;;;;;;;;;;4967511;28;20071;-65
2023/12/08 03:38:48;;;;;;;19.38;9.40;;;;;;;;;;4971132;28;20027;-64
2023/12/08 03:41:13;;;;;;;21.77;8.85;;;;;;;;;;4970656;28;20394;-64
2023/12/08 03:43:39;;;;;;;36.67;10.88;;;;;;;;;;4970953;28;20029;-63
2023/12/08 03:46:05;;;;;;;26.58;10.90;;;;;;;;;;4969454;28;20371;-63
2023/12/08 03:48:30;;;;;;;18.55;9.13;;;;;;;;;;4971520;28;20593;-64
2023/12/08 03:50:55;;;;;;;18.15;9.63;;;;;;;;;;4966714;28;20039;-64
2023/12/08 03:53:20;;;;;;;23.90;10.38;;;;;;;;;;4969051;28;20038;-64
2023/12/08 03:55:45;;;;;;;19.52;10.05;;;;;;;;;;4969518;28;20019;-63
2023/12/08 03:58:11;;;;;;;25.40;9.65;;;;;;;;;;4970061;28;20030;-64
2023/12/08 04:00:36;;;;;;;26.75;10.15;;;;;;;;;;4970199;28;20019;-63
2023/12/08 04:03:01;;;;;;;17.55;9.13;;;;;;;;;;4970223;28;20027;-64
2023/12/08 04:05:26;;;;;;;18.95;9.18;;;;;;;;;;4969753;28;20026;-64
2023/12/08 04:07:51;;;;;;;27.17;11.35;;;;;;;;;;4968619;28;20097;-66
2023/12/08 04:10:17;;;;;;;21.77;10.27;;;;;;;;;;4968230;28;20026;-64
2023/12/08 04:12:42;;;;;;;23.02;10.38;;;;;;;;;;4970244;28;20026;-65
2023/12/08 04:15:07;;;;;;;30.00;10.88;;;;;;;;;;4970720;28;20015;-63
2023/12/08 04:17:32;;;;;;;19.17;9.52;;;;;;;;;;4974049;28;20386;-67
2023/12/08 04:19:58;;;;;;;22.63;9.75;;;;;;;;;;4968270;28;20078;-65
2023/12/08 04:22:23;;;;;;;28.40;11.18;;;;;;;;;;4968751;28;20407;-65
2023/12/08 04:24:48;;;;;;;21.15;10.13;;;;;;;;;;4969215;28;20034;-65
2023/12/08 04:27:13;;;;;;;17.30;8.38;;;;;;;;;;4969741;28;20522;-65
2023/12/08 04:29:38;;;;;;;22.23;9.23;;;;;;;;;;4969305;28;20535;-66
2023/12/08 04:32:04;;;;;;;22.00;9.77;;;;;;;;;;4970084;28;20098;-65
2023/12/08 04:34:29;;;;;;;20.08;8.20;;;;;;;;;;4969275;28;20398;-64
2023/12/08 04:36:54;;;;;;;19.60;9.82;;;;;;;;;;4968764;28;20025;-65
2023/12/08 04:39:19;;;;;;;21.35;9.95;;;;;;;;;;4971513;28;20015;-64
2023/12/08 04:41:45;;;;;;;19.60;8.65;;;;;;;;;;4969720;28;20526;-65
2023/12/08 04:44:10;;;;;;;19.02;9.63;;;;;;;;;;4971375;28;20045;-63
2023/12/08 04:46:35;;;;;;;19.15;8.75;;;;;;;;;;4968618;28;20023;-65
2023/12/08 04:49:00;;;;;;;19.80;8.98;;;;;;;;;;4975424;28;20629;-64
2023/12/08 04:51:26;;;;;;;19.35;9.18;;;;;;;;;;4965857;28;20109;-64
2023/12/08 04:53:51;;;;;;;29.02;9.75;;;;;;;;;;4966223;28;20030;-62
2023/12/08 04:56:16;;;;;;;23.17;7.95;;;;;;;;;;4966992;28;20482;-63
2023/12/08 04:58:41;;;;;;;20.17;9.05;;;;;;;;;;4968930;28;20502;-61
2023/12/08 05:01:11;;;;;;;21.80;9.15;;;;;;;;;;4969615;28;20109;-63
2023/12/08 05:03:36;;;;;;;21.00;8.95;;;;;;;;;;4969294;28;20030;-62
2023/12/08 05:06:01;;;;;;;17.23;7.20;;;;;;;;;;4969172;28;20027;-64
2023/12/08 05:08:27;;;;;;;18.65;9.30;;;;;;;;;;4970936;28;20097;-60
2023/12/08 05:10:52;;;;;;;17.67;8.57;;;;;;;;;;4971675;28;20037;-65
2023/12/08 05:13:17;;;;;;;20.58;8.63;;;;;;;;;;4972964;28;20581;-64
2023/12/08 05:15:43;;;;;;;20.65;8.27;;;;;;;;;;4977557;28;20109;-64
2023/12/08 05:18:08;;;;;;;21.17;9.40;;;;;;;;;;4972166;28;20027;-64
2023/12/08 05:20:33;;;;;;;17.92;8.93;;;;;;;;;;4973384;28;20022;-64
2023/12/08 05:22:58;;;;;;;16.63;8.05;;;;;;;;;;4973027;28;20037;-62
2023/12/08 05:25:23;;;;;;;17.80;9.00;;;;;;;;;;4972695;28;20030;-63
2023/12/08 05:27:49;;;;;;;16.48;8.57;;;;;;;;;;4972150;28;20065;-65
2023/12/08 05:30:14;;;;;;;22.98;8.85;;;;;;;;;;4972531;28;20431;-64
2023/12/08 05:32:39;;;;;;;18.38;8.13;;;;;;;;;;4972334;28;20046;-64
2023/12/08 05:35:04;;;;;;;20.08;8.75;;;;;;;;;;4972451;28;20097;-64
2023/12/08 05:37:30;;;;;;;25.88;10.10;;;;;;;;;;4975819;28;20046;-64
2023/12/08 05:39:55;;;;;;;16.63;8.43;;;;;;;;;;4968128;28;20561;-64
2023/12/08 05:42:21;;;;;;;23.70;8.98;;;;;;;;;;4975221;28;20673;-63
2023/12/08 05:44:46;;;;;;;18.13;8.93;;;;;;;;;;4972250;28;20051;-63
2023/12/08 05:47:11;;;;;;;21.17;9.00;;;;;;;;;;4969206;28;20033;-65
2023/12/08 05:49:36;;;;;;;16.77;9.40;;;;;;;;;;4976462;28;20029;-64
2023/12/08 05:52:02;;;;;;;21.70;9.73;;;;;;;;;;4964028;28;20022;-66
2023/12/08 05:54:28;;;;;;;19.55;9.93;;;;;;;;;;4974117;28;20154;-65
2023/12/08 05:56:53;;;;;;;23.08;9.13;;;;;;;;;;4971663;28;20502;-64
2023/12/08 05:59:18;;;;;;;17.50;9.25;;;;;;;;;;4969182;28;20033;-66
2023/12/08 06:01:43;;;;;;;20.10;9.70;;;;;;;;;;4972367;28;20102;-66
2023/12/08 06:04:09;;;;;;;20.27;9.43;;;;;;;;;;4971978;28;20042;-61
2023/12/08 06:06:34;;;;;;;23.80;10.18;;;;;;;;;;4971237;28;20058;-65
2023/12/08 06:08:59;;;;;;;22.48;10.20;;;;;;;;;;4971470;28;20539;-64
2023/12/08 06:11:24;;;;;;;20.50;9.40;;;;;;;;;;4971656;28;20030;-65
2023/12/08 06:13:50;;;;;;;20.02;8.48;;;;;;;;;;4971926;28;20098;-64
2023/12/08 06:16:15;;;;;;;20.67;9.95;;;;;;;;;;4969320;28;20015;-64
2023/12/08 06:18:40;;;;;;;18.42;8.73;;;;;;;;;;4968589;28;20171;-65
2023/12/08 06:21:05;;;;;;;17.13;9.38;;;;;;;;;;4972941;28;20110;-65
2023/12/08 06:23:31;;;;;;;18.83;9.50;;;;;;;;;;4971582;28;20073;-66
2023/12/08 06:25:56;;;;;;;27.00;9.95;;;;;;;;;;4972239;28;20019;-64
2023/12/08 06:28:21;;;;;;;25.90;10.77;;;;;;;;;;4988827;23;20131;-69
2023/12/08 06:30:46;;;;;;;29.73;10.32;;;;;;;;;;4964030;28;20032;-67
2023/12/08 06:33:11;;;;;;;24.00;9.88;;;;;;;;;;4966407;28;20034;-67
2023/12/08 06:35:37;;;;;;;19.38;9.68;;;;;;;;;;4968721;28;20023;-69
2023/12/08 06:38:04;;;;;;;21.02;8.90;;;;;;;;;;4970372;28;20110;-65
2023/12/08 06:40:29;;;;;;;20.27;8.43;;;;;;;;;;4966895;28;20022;-67
2023/12/08 06:42:54;;;;;;;21.63;8.50;;;;;;;;;;4973024;28;20029;-65
2023/12/08 06:45:20;;;;;;;21.75;8.13;;;;;;;;;;4970374;28;20398;-65
2023/12/08 06:47:45;;;;;;;16.98;8.30;;;;;;;;;;4970515;28;20058;-68
2023/12/08 06:50:11;;;;;;;20.77;9.70;;;;;;;;;;4975364;28;20018;-68
2023/12/08 06:52:36;;;;;;;23.13;8.90;;;;;;;;;;4971208;28;20394;-68
2023/12/08 06:55:02;;;;;;;19.60;8.18;;;;;;;;;;4968401;28;20030;-67
2023/12/08 06:57:27;;;;;;;21.77;8.75;;;;;;;;;;4969164;28;20057;-67
2023/12/08 06:59:52;;;;;;;18.85;8.68;;;;;;;;;;4970058;28;20035;-66
2023/12/08 07:02:17;;;;;;;20.58;8.23;;;;;;;;;;4971016;28;20050;-66
2023/12/08 07:04:42;;;;;;;18.35;8.00;;;;;;;;;;4964449;28;20469;-67
2023/12/08 07:07:08;;;;;;;20.27;9.90;;;;;;;;;;4967498;28;20039;-67
2023/12/08 07:09:33;;;;;;;22.70;9.00;;;;;;;;;;4966553;28;20023;-67
2023/12/08 07:11:58;;;;;;;21.40;9.93;;;;;;;;;;4967837;28;20021;-67
2023/12/08 07:14:23;;;;;;;14.40;7.45;;;;;;;;;;4969302;28;20023;-67
2023/12/08 07:16:50;;;;;;;19.17;8.85;;;;;;;;;;4974394;28;20129;-65
2023/12/08 07:19:15;;;;;;;17.92;7.80;;;;;;;;;;4968867;28;20046;-66
2023/12/08 07:21:41;;;;;;;20.13;8.88;;;;;;;;;;4969770;28;20039;-66
2023/12/08 07:24:06;;;;;;;20.13;9.18;;;;;;;;;;4969598;28;20026;-66
2023/12/08 07:26:31;;;;;;;16.23;8.20;;;;;;;;;;4968420;28;20479;-66
2023/12/08 07:28:56;;;;;;;18.58;8.35;;;;;;;;;;4968903;28;20045;-67
2023/12/08 07:31:21;;;;;;;19.25;7.68;;;;;;;;;;4969748;28;20125;-67
2023/12/08 07:33:47;;;;;;;23.25;8.05;;;;;;;;;;4968564;28;20023;-65
2023/12/08 07:36:12;;;;;;;24.52;9.52;;;;;;;;;;4968890;28;20027;-67
2023/12/08 07:38:37;;;;;;;19.60;8.95;;;;;;;;;;4972863;28;20019;-69
2023/12/08 07:41:02;;;;;;;18.40;8.40;;;;;;;;;;4966585;28;20019;-67
2023/12/08 07:43:28;;;;;;;20.10;8.52;;;;;;;;;;4971763;28;20019;-66
2023/12/08 07:45:53;;;;;;;19.38;7.97;;;;;;;;;;4967035;28;20482;-67
2023/12/08 07:48:19;;;;;;;18.85;7.85;;;;;;;;;;4972216;28;20110;-66
2023/12/08 07:50:44;;;;;;;18.30;8.60;;;;;;;;;;4966337;28;20023;-66
2023/12/08 07:53:10;;;;;;;17.33;8.23;;;;;;;;;;4969106;28;20026;-67
2023/12/08 07:55:35;;;;;;;20.30;7.68;;;;;;;;;;4969565;28;20038;-64
2023/12/08 07:58:00;;;;;;;24.45;8.48;;;;;;;;;;4968928;28;20069;-66
2023/12/08 08:00:26;;;;;;;19.10;9.43;;;;;;;;;;4969320;28;20039;-68
2023/12/08 08:02:51;;;;;;;22.27;8.57;;;;;;;;;;4968356;28;20023;-67
2023/12/08 08:05:16;;;;;;;19.25;9.35;;;;;;;;;;4969839;28;20161;-67
2023/12/08 08:07:41;;;;;;;21.92;9.13;;;;;;;;;;4968699;28;20046;-67
2023/12/08 08:10:07;;;;;;;21.25;8.43;;;;;;;;;;4969663;28;20031;-67
2023/12/08 08:12:33;;;;;;;18.05;7.97;;;;;;;;;;4969333;28;20395;-67
2023/12/08 08:14:58;;;;;;;24.23;8.65;;;;;;;;;;4968568;28;20034;-67
2023/12/08 08:17:23;;;;;;;17.60;7.60;;;;;;;;;;4975165;28;20061;-66
2023/12/08 08:19:49;;;;;;;26.15;9.27;;;;;;;;;;4962956;28;20088;-67
2023/12/08 08:22:14;;;;;;;24.08;9.77;;;;;;;;;;4969818;28;20478;-66
2023/12/08 08:24:40;;;;;;;26.10;11.85;;;;;;;;;;4968737;28;20051;-67
2023/12/08 08:27:05;;;;;;;40.85;15.88;;;;;;;;;;4968925;28;20026;-66
2023/12/08 08:29:30;;;;;;;26.88;11.18;;;;;;;;;;4969484;28;20121;-67
2023/12/08 08:31:55;;;;;;;21.70;9.75;;;;;;;;;;4969530;28;20102;-67
2023/12/08 08:34:21;;;;;;;17.48;8.80;;;;;;;;;;4969653;28;20442;-68
2023/12/08 08:36:46;;;;;;;23.30;9.90;;;;;;;;;;4969057;28;20015;-67
2023/12/08 08:39:11;;;;;;;22.85;9.90;;;;;;;;;;4973317;28;20023;-68
2023/12/08 08:41:36;;;;;;;19.95;9.80;;;;;;;;;;4970667;28;20029;-66
2023/12/08 08:44:02;;;;;;;20.23;9.20;;;;;;;;;;4977966;28;20080;-66
2023/12/08 08:46:27;;;;;;;19.95;9.27;;;;;;;;;;4970914;28;20097;-67
2023/12/08 08:48:54;;;;;;;23.73;9.05;;;;;;;;;;4974709;28;20037;-67
2023/12/08 08:51:19;;;;;;;23.83;10.93;;;;;;;;;;4970912;28;20053;-68
2023/12/08 08:53:45;;;;;;;23.27;9.38;;;;;;;;;;4973618;28;20058;-68
2023/12/08 08:56:10;;;;;;;16.58;7.28;;;;;;;;;;4973653;28;20027;-70
2023/12/08 08:58:35;;;;;;;17.98;7.95;;;;;;;;;;4973283;28;20026;-65
2023/12/08 09:01:00;;;;;;;18.30;8.10;;;;;;;;;;4972038;28;20018;-67
2023/12/08 09:03:25;;;;;;;17.88;8.25;;;;;;;;;;4973004;28;20088;-66
2023/12/08 09:05:51;;;;;;;17.05;7.50;;;;;;;;;;4972079;28;20371;-67
2023/12/08 09:08:16;;;;;;;20.52;8.80;;;;;;;;;;4971754;28;20023;-67
2023/12/08 09:10:45;;;;;;;17.27;7.72;;;;;;;;;;4972713;28;20030;-66
2023/12/08 09:13:10;;;;;;;20.58;8.70;;;;;;;;;;4965692;28;20023;-66
2023/12/08 09:15:35;;;;;;;21.98;8.77;;;;;;;;;;4975863;28;20026;-66
2023/12/08 09:18:00;;;;;;;21.00;8.60;;;;;;;;;;4972494;28;20011;-68
2023/12/08 09:20:26;;;;;;;18.00;9.23;;;;;;;;;;4972641;28;20029;-67
2023/12/08 09:22:51;;;;;;;15.70;7.30;;;;;;;;;;4972553;28;20015;-67
2023/12/08 09:25:17;;;;;;;15.55;7.55;;;;;;;;;;4971690;28;20046;-66
2023/12/08 09:27:43;;;;;;;22.17;9.02;;;;;;;;;;4967740;28;20034;-66
2023/12/08 09:30:09;;;;;;;19.05;8.02;;;;;;;;;;4971818;28;20046;-65
2023/12/08 09:32:34;;;;;;;14.32;7.60;;;;;;;;;;4972465;28;20077;-66
2023/12/08 09:34:59;;;;;;;19.65;7.25;;;;;;;;;;4971804;28;20019;-68
2023/12/08 09:37:24;;;;;;;22.23;8.82;;;;;;;;;;4974811;28;20390;-67
2023/12/08 09:39:49;;;;;;;21.92;9.07;;;;;;;;;;4973090;28;20018;-67
2023/12/08 09:42:19;;;;;;;29.73;8.25;;;;;;;;;;4973552;28;20106;-66
2023/12/08 09:44:44;;;;;;;22.95;8.63;;;;;;;;;;4974025;28;20085;-67
2023/12/08 09:47:10;;;;;;;19.38;8.00;;;;;;;;;;4964464;28;20114;-67
2023/12/08 09:49:39;;;;;;;18.10;8.50;;;;;;;;;;4973596;28;20023;-68
2023/12/08 09:52:04;;;;;;;24.17;8.95;;;;;;;;;;4964591;28;20015;-67
2023/12/08 09:54:30;;;;;;;29.08;9.52;;;;;;;;;;4971882;28;20164;-68
2023/12/08 09:56:56;;;;;;;20.88;7.65;;;;;;;;;;4971357;28;20457;-67
2023/12/08 09:59:23;;;;;;;25.35;8.02;;;;;;;;;;4971637;28;20018;-67
2023/12/08 10:01:48;;;;;;;19.52;7.80;;;;;;;;;;4971346;28;20038;-66
2023/12/08 10:04:13;;;;;;;17.95;8.27;;;;;;;;;;4972181;28;20029;-65
2023/12/08 10:06:38;;;;;;;28.95;8.77;;;;;;;;;;4969384;28;20050;-67
2023/12/08 10:09:04;;;;;;;17.52;8.73;;;;;;;;;;4970790;28;20085;-67
2023/12/08 10:11:30;;;;;;;19.95;8.32;;;;;;;;;;4971497;28;20038;-66
2023/12/08 10:13:56;;;;;;;16.75;9.00;;;;;;;;;;4971495;28;20026;-66
2023/12/08 10:16:22;;;;;;;26.23;9.18;;;;;;;;;;4974264;28;20029;-66
2023/12/08 10:18:48;;;;;;;22.58;8.95;;;;;;;;;;4971424;28;20023;-65
2023/12/08 10:21:15;;;;;;;16.27;7.78;;;;;;;;;;4973089;28;20085;-67
2023/12/08 10:23:44;;;;;;;18.00;8.20;;;;;;;;;;4973219;28;20077;-67
2023/12/08 10:26:09;;;;;;;;;;;;;;;;;;4972165;28;20026;-66
2023/12/08 10:28:34;;;;;;;19.05;7.97;;;;;;;;;;4971357;28;20461;-66
2023/12/08 10:31:00;;;;;;;20.52;8.23;;;;;;;;;;4970729;28;20067;-66
2023/12/08 10:33:25;;;;;;;18.48;7.90;;;;;;;;;;4971487;28;20033;-66
2023/12/08 10:35:51;;;;;;;22.73;9.05;;;;;;;;;;4970604;28;20046;-66
2023/12/08 10:38:16;;;;;;;19.23;7.97;;;;;;;;;;4975064;28;20513;-66
2023/12/08 10:40:48;;;;;;;15.27;7.00;;;;;;;;;;4970719;28;20030;-67
2023/12/08 10:43:23;;;;;;;19.27;8.00;;;;;;;;;;4976275;28;20106;-66
2023/12/08 10:45:49;;;;;;;19.27;7.38;;;;;;;;;;4963748;28;20035;-66
2023/12/08 10:48:14;;;;;;;18.50;7.68;;;;;;;;;;4972242;28;20026;-66
2023/12/08 10:50:42;;;;;;;22.55;8.57;;;;;;;;;;4969365;28;20041;-68
2023/12/08 10:53:08;;;;;;;24.73;8.82;;;;;;;;;;4970762;28;20034;-66
2023/12/08 10:55:33;;;;;;;15.70;6.72;;;;;;;;;;4971247;28;20106;-66
2023/12/08 10:58:00;;;;;;;17.35;7.55;;;;;;;;;;4970246;28;20209;-68
2023/12/08 11:00:26;;;;;;;14.68;6.47;;;;;;;;;;4969475;28;20022;-67
2023/12/08 11:02:53;;;;;;;13.15;6.43;;;;;;;;;;4968470;28;20041;-67
2023/12/08 11:05:21;;;;;;;14.35;6.63;;;;;;;;;;4969905;28;20019;-69
2023/12/08 11:07:47;;;;;;;17.40;6.97;;;;;;;;;;4969919;28;20100;-67
2023/12/08 11:10:14;;;;;;;19.17;7.05;;;;;;;;;;4970177;28;20038;-67
2023/12/08 11:12:45;;;;;;;14.77;6.38;;;;;;;;;;4968541;28;20524;-67
2023/12/08 11:15:16;;;;;;;13.77;5.70;;;;;;;;;;4971201;28;20041;-68
2023/12/08 11:17:43;;;;;;;15.20;5.82;;;;;;;;;;4971497;28;20146;-67
2023/12/08 11:20:09;;;;;;;15.38;6.20;;;;;;;;;;4973931;28;20034;-68
2023/12/08 11:22:35;;;;;;;16.20;7.00;;;;;;;;;;4970829;28;20463;-67
2023/12/08 11:25:06;;;;;;;14.43;6.15;;;;;;;;;;4969540;28;20015;-66
2023/12/08 11:27:36;;;;;;;15.70;5.55;;;;;;;;;;4969420;28;20029;-66
2023/12/08 11:30:08;;;;;;;13.35;5.72;;;;;;;;;;4969509;28;20030;-68
2023/12/08 11:32:36;;;;;;;16.20;6.00;;;;;;;;;;4971072;28;20090;-68
2023/12/08 11:35:02;;;;;;;14.60;6.25;;;;;;;;;;4969984;28;20014;-68
2023/12/08 11:37:29;;;;;;;8.07;3.90;;;;;;;;;;4973298;28;20010;-67
2023/12/08 11:40:00;;;;;;;11.40;5.05;;;;;;;;;;4971215;28;20019;-67
2023/12/08 11:42:27;;;;;;;9.80;4.40;;;;;;;;;;4973217;28;20529;-65
2023/12/08 11:44:52;;;;;;;10.55;5.05;;;;;;;;;;4970736;28;20065;-67
2023/12/08 11:47:19;;;;;;;11.98;5.43;;;;;;;;;;4964746;28;20047;-68
2023/12/08 11:49:45;;;;;;;10.90;5.03;;;;;;;;;;4968199;28;20117;-67
2023/12/08 11:52:24;;;;;;;18.13;5.13;;;;;;;;;;4970384;28;20085;-64
2023/12/08 11:55:05;;;;;;;12.82;5.75;;;;;;;;;;4968586;28;20042;-69
2023/12/08 11:57:32;;;;;;;10.82;5.10;;;;;;;;;;4969046;28;20019;-66
2023/12/08 11:59:59;;;;;;;13.13;5.80;;;;;;;;;;4969131;28;20034;-66
2023/12/08 12:02:24;;;;;;;18.20;5.97;;;;;;;;;;4969479;28;20098;-67
2023/12/08 12:04:49;;;;;;;12.90;5.80;;;;;;;;;;4968833;28;20033;-66
2023/12/08 12:07:19;;;;;;;12.43;6.75;;;;;;;;;;4969002;28;20023;-66
2023/12/08 12:09:45;;;;;;;17.20;6.63;;;;;;;;;;4969111;28;20034;-69
2023/12/08 12:12:21;;;;;;;13.63;5.70;;;;;;;;;;4968674;28;20138;-68
2023/12/08 12:14:49;;;;;;;17.42;6.65;;;;;;;;;;4966120;28;20027;-67
2023/12/08 12:17:14;;;;;;;17.85;7.25;;;;;;;;;;4974990;28;20011;-68
2023/12/08 12:19:40;;;;;;;14.45;6.93;;;;;;;;;;4972494;28;20499;-68
2023/12/08 12:22:05;;;;;;;18.83;7.43;;;;;;;;;;4975225;28;20010;-67
2023/12/08 12:24:31;;;;;;;18.80;7.85;;;;;;;;;;4975360;28;20023;-66
2023/12/08 12:26:56;;;;;;;17.98;7.10;;;;;;;;;;4974967;28;20030;-66
2023/12/08 12:29:21;;;;;;;13.75;7.13;;;;;;;;;;4977056;28;20058;-67
2023/12/08 12:31:46;;;;;;;18.92;6.55;;;;;;;;;;4975526;28;20042;-69
2023/12/08 12:34:12;;;;;;;14.93;6.90;;;;;;;;;;4975820;28;20077;-68
2023/12/08 12:36:37;;;;;;;18.25;6.38;;;;;;;;;;4975172;28;20372;-69
2023/12/08 12:39:03;;;;;;;11.35;6.00;;;;;;;;;;4974614;28;20637;-69
2023/12/08 12:41:29;;;;;;;15.75;6.10;;;;;;;;;;4976053;28;20026;-69
2023/12/08 12:43:55;;;;;;;14.10;5.95;;;;;;;;;;4980734;28;20019;-68
2023/12/08 12:46:21;;;;;;;13.10;5.50;;;;;;;;;;4973485;28;20089;-71
2023/12/08 12:48:47;;;;;;;13.60;5.65;;;;;;;;;;4974900;28;20027;-68
2023/12/08 12:51:14;;;;;;;13.07;5.80;;;;;;;;;;4973378;28;20471;-68
2023/12/08 12:53:45;;;;;;;10.30;5.40;;;;;;;;;;4976058;28;20109;-70
2023/12/08 12:56:11;;;;;;;13.32;6.15;;;;;;;;;;4975206;28;20019;-69
2023/12/08 12:58:36;;;;;;;13.55;6.63;;;;;;;;;;4977088;28;20015;-71
2023/12/08 13:01:13;;;;;;;12.00;6.30;;;;;;;;;;4976420;28;20471;-69
2023/12/08 13:03:45;;;;;;;13.98;7.13;;;;;;;;;;4976989;28;20161;-69
2023/12/08 13:06:10;;;;;;;17.23;7.15;;;;;;;;;;4975557;28;20521;-69
2023/12/08 13:08:43;;;;;;;12.93;6.30;;;;;;;;;;4976829;28;20031;-70
2023/12/08 13:11:08;;;;;;;16.63;6.25;;;;;;;;;;4980135;28;20027;-70
2023/12/08 13:13:36;;;;;;;18.23;7.75;;;;;;;;;;4976806;28;20015;-69
2023/12/08 13:16:02;;;;;;;18.83;7.78;;;;;;;;;;4975354;28;20019;-67
2023/12/08 13:18:27;;;;;;;14.85;7.15;;;;;;;;;;4975797;28;20021;-70
2023/12/08 13:20:53;;;;;;;17.00;6.35;;;;;;;;;;4975431;28;20019;-66
2023/12/08 13:23:19;;;;;;;16.38;6.53;;;;;;;;;;4975352;28;20019;-68
2023/12/08 13:25:44;;;;;;;19.20;7.45;;;;;;;;;;4973847;28;20027;-69
2023/12/08 13:28:09;;;;;;;17.00;7.78;;;;;;;;;;4971450;28;20031;-68
2023/12/08 13:30:35;;;;;;;19.70;7.63;;;;;;;;;;4971917;28;20033;-69
2023/12/08 13:33:00;;;;;;;20.60;8.07;;;;;;;;;;4972032;28;20450;-69
2023/12/08 13:35:25;;;;;;;18.05;7.18;;;;;;;;;;4971998;28;20019;-69
2023/12/08 13:37:51;;;;;;;14.90;6.60;;;;;;;;;;4977004;28;20026;-69
2023/12/08 13:40:16;;;;;;;19.67;7.57;;;;;;;;;;4971664;28;20106;-67
2023/12/08 13:42:41;;;;;;;20.35;8.02;;;;;;;;;;4977439;28;20035;-69
2023/12/08 13:45:07;;;;;;;15.48;7.60;;;;;;;;;;4971781;28;20451;-68
2023/12/08 13:47:32;;;;;;;18.38;7.00;;;;;;;;;;4970606;28;20145;-68
2023/12/08 13:49:57;;;;;;;21.65;7.63;;;;;;;;;;4973798;28;20027;-70
2023/12/08 13:52:23;;;;;;;15.90;7.15;;;;;;;;;;4973540;28;20033;-68
2023/12/08 13:54:48;;;;;;;18.08;7.15;;;;;;;;;;4971131;28;20794;-68
2023/12/08 13:57:13;;;;;;;17.30;7.00;;;;;;;;;;4971596;28;20022;-70
2023/12/08 13:59:38;;;;;;;19.80;7.88;;;;;;;;;;4971562;28;20021;-69
2023/12/08 14:02:04;;;;;;;26.80;7.65;;;;;;;;;;4971808;28;20063;-68
2023/12/08 14:04:29;;;;;;;13.77;6.93;;;;;;;;;;4971623;28;20117;-67
2023/12/08 14:06:54;;;;;;;14.93;6.75;;;;;;;;;;4970903;28;20074;-67
2023/12/08 14:09:20;;;;;;;17.35;7.07;;;;;;;;;;4971067;28;20026;-67
2023/12/08 14:11:45;;;;;;;20.38;8.88;;;;;;;;;;4975054;28;20026;-68
2023/12/08 14:14:10;;;;;;;16.63;7.43;;;;;;;;;;4970978;28;20023;-68
2023/12/08 14:16:36;;;;;;;21.80;8.68;;;;;;;;;;4970365;28;20588;-69